8B5 weather

Tanner Hiller Airport
Barre/Barre Plains, Massachusetts, United States

Public forecast

Using degrees Fahrenheit for public forecast. Weather courtesy of forecast.io.

METAR (pilot weather report)

Closest report is Worcester Regional Airport, 12.5 nm (23.1 km) ESE. Retrieved 2019/09/21 00:54 UTC (57 minutes ago):

KORH 210054Z 24007KT 10SM CLR 16/11 A3016 RMK AO2 SLP213 T01610111

TAF (pilot weather forecast)

Forecast is more than 12 hours old.

Closest forecast is Worcester Regional Airport, 12.5 nm (23.1 km) ESE. Retrieved 2019/09/20 00:22 UTC (1 day ago):

TAF KORH 202320Z 2100/2124 28006KT P6SM FEW250 FM210700 30008KT P6SM SKC FM211700 27005KT P6SM SKC FM212200 24005KT P6SM SKC